createdAt,value
2022-10-23T00:04:07.284Z,10.30
2022-10-23T00:14:10.714Z,10.40
2022-10-23T00:24:15.759Z,10.40
2022-10-23T00:34:19.534Z,10.50
2022-10-23T00:45:22.394Z,10.50
2022-10-23T00:55:28.521Z,10.50
2022-10-23T01:05:40.982Z,10.50
2022-10-23T01:15:50.715Z,10.40
2022-10-23T01:26:32.604Z,10.40
2022-10-23T01:36:40.954Z,10.40
2022-10-23T01:46:46.523Z,10.40
2022-10-23T01:56:53.090Z,10.30
2022-10-23T02:07:01.397Z,10.20
2022-10-23T02:17:16.009Z,10.20
2022-10-23T02:27:25.566Z,10.20
2022-10-23T02:37:35.377Z,10.10
2022-10-23T02:47:51.943Z,9.80
2022-10-23T02:58:04.379Z,9.50
2022-10-23T03:08:10.811Z,9.40
2022-10-23T03:18:15.501Z,9.50
2022-10-23T03:28:23.963Z,9.40
2022-10-23T03:38:28.676Z,9.40
2022-10-23T03:48:33.038Z,9.40
2022-10-23T03:58:37.774Z,9.40
2022-10-23T04:08:41.043Z,9.40
2022-10-23T04:18:52.879Z,9.50
2022-10-23T04:28:56.221Z,9.20
2022-10-23T04:39:01.081Z,8.80
2022-10-23T04:49:04.640Z,8.80
2022-10-23T04:59:24.417Z,8.70
2022-10-23T05:09:27.896Z,8.70
2022-10-23T05:19:56.778Z,8.20
2022-10-23T05:30:00.265Z,7.70
2022-10-23T05:40:10.324Z,7.40
2022-10-23T05:50:16.204Z,7.50
2022-10-23T06:00:49.475Z,8.20
2022-10-23T06:11:12.960Z,8.60
2022-10-23T06:21:18.674Z,9.10
2022-10-23T06:31:26.875Z,10.00
2022-10-23T06:41:33.030Z,10.80
2022-10-23T06:51:36.371Z,11.60
2022-10-23T07:01:42.801Z,13.00
2022-10-23T07:11:47.454Z,13.70
2022-10-23T07:21:52.643Z,14.80
2022-10-23T07:32:11.299Z,14.80
2022-10-23T07:42:47.805Z,14.70
2022-10-23T07:52:52.311Z,14.80
2022-10-23T08:02:58.354Z,14.60
2022-10-23T08:13:02.965Z,14.40
2022-10-23T08:23:34.318Z,15.30
2022-10-23T08:33:38.847Z,17.20
2022-10-23T08:43:49.083Z,21.10
2022-10-23T08:54:12.791Z,24.50
2022-10-23T09:04:18.451Z,29.30
2022-10-23T09:14:43.455Z,32.90
2022-10-23T09:24:52.969Z,33.70
2022-10-23T09:34:57.404Z,32.90
2022-10-23T09:45:02.254Z,36.50
2022-10-23T09:55:23.273Z,38.00
2022-10-23T10:05:31.702Z,41.50
2022-10-23T10:15:46.993Z,43.00
2022-10-23T10:26:01.956Z,42.00
2022-10-23T10:36:21.186Z,43.70
2022-10-23T10:46:35.366Z,44.60
2022-10-23T10:56:43.601Z,45.70
2022-10-23T11:06:53.939Z,47.20
2022-10-23T11:17:05.865Z,47.00
2022-10-23T11:27:29.438Z,47.70
2022-10-23T11:37:33.582Z,47.00
2022-10-23T11:47:40.830Z,47.90
2022-10-23T11:57:45.422Z,47.10
2022-10-23T12:07:56.768Z,44.10
2022-10-23T12:18:15.227Z,43.50
2022-10-23T12:28:31.939Z,39.30
2022-10-23T12:38:45.815Z,37.30
2022-10-23T12:48:53.721Z,32.20
2022-10-23T12:59:00.706Z,28.80
2022-10-23T13:09:06.743Z,33.40
2022-10-23T13:19:26.997Z,38.30
2022-10-23T13:29:35.093Z,37.40
2022-10-23T13:39:38.672Z,33.80
2022-10-23T13:49:43.608Z,30.90
2022-10-23T13:59:47.120Z,27.50
2022-10-23T14:09:52.022Z,25.80
2022-10-23T14:19:56.084Z,23.40
2022-10-23T14:30:00.857Z,21.10
2022-10-23T14:40:05.467Z,19.50
2022-10-23T14:50:14.370Z,18.40
2022-10-23T15:00:18.339Z,17.40
2022-10-23T15:10:23.399Z,16.40
2022-10-23T15:20:26.838Z,15.40
2022-10-23T15:30:31.697Z,14.40
2022-10-23T15:40:35.190Z,13.40
2022-10-23T15:50:39.993Z,12.50
2022-10-23T16:00:43.524Z,11.80
2022-10-23T16:10:48.415Z,11.20
2022-10-23T16:20:55.162Z,10.60
2022-10-23T16:31:00.724Z,10.30
2022-10-23T16:41:07.075Z,10.10
2022-10-23T16:51:21.345Z,9.80
2022-10-23T17:01:28.499Z,9.60
2022-10-23T17:11:35.888Z,9.20
2022-10-23T17:21:42.295Z,8.90
2022-10-23T17:31:49.749Z,8.70
2022-10-23T17:41:53.711Z,8.20
2022-10-23T17:51:59.273Z,8.00
2022-10-23T18:02:03.247Z,7.90
2022-10-23T18:12:08.244Z,7.80
2022-10-23T18:22:11.614Z,7.80
2022-10-23T18:32:17.608Z,7.80
2022-10-23T18:42:21.099Z,7.70
2022-10-23T18:52:25.722Z,7.70
2022-10-23T19:02:31.532Z,7.60
2022-10-23T19:12:36.553Z,7.40
2022-10-23T19:22:43.142Z,7.30
2022-10-23T19:32:49.438Z,6.90
2022-10-23T19:42:54.276Z,6.60
2022-10-23T19:52:58.879Z,6.50
2022-10-23T20:03:02.167Z,6.20
2022-10-23T20:13:19.292Z,6.20
2022-10-23T20:23:23.600Z,5.80
2022-10-23T20:33:28.344Z,5.60
2022-10-23T20:43:33.718Z,5.50
2022-10-23T20:53:39.467Z,5.50
2022-10-23T21:03:42.778Z,5.40
2022-10-23T21:13:48.365Z,5.20
2022-10-23T21:23:56.164Z,5.10
2022-10-23T21:34:00.933Z,4.90
2022-10-23T21:44:06.932Z,4.80
2022-10-23T21:54:14.850Z,4.70
2022-10-23T22:04:20.311Z,4.40
2022-10-23T22:14:25.232Z,4.30
2022-10-23T22:24:28.602Z,4.30
2022-10-23T22:34:51.904Z,4.20
2022-10-23T22:44:55.814Z,4.30
2022-10-23T22:55:00.394Z,4.20
2022-10-23T23:05:03.692Z,4.20
2022-10-23T23:15:10.386Z,4.50
2022-10-23T23:25:13.642Z,4.50
2022-10-23T23:35:18.522Z,4.50
2022-10-23T23:45:21.733Z,4.50
2022-10-23T23:55:26.326Z,4.50
